Time;durP1;ratioP1;P1;durP2;ratioP2;P2;SDS_P1;SDS_P2;PMS_P1;PMS_P2;Temp;Humidity;BMP_temperature;BMP_pressure;BME280_temperature;BME280_humidity;BME280_pressure;Samples;Min_cycle;Max_cycle;Signal;HPM_P1;HPM_P2
2022/04/07 00:00:16;;;;;;;1.30;1.20;;;12.50;79.30;;;;;;7343672;19;21031;-72
2022/04/07 00:02:46;;;;;;;2.20;1.70;;;12.50;79.40;;;;;;7353901;19;20419;-73
2022/04/07 00:05:17;;;;;;;1.20;0.97;;;12.40;80.90;;;;;;7348365;19;20444;-72
2022/04/07 00:07:54;;;;;;;2.03;1.13;;;12.40;79.70;;;;;;7334802;19;20421;-73
2022/04/07 00:10:26;;;;;;;1.10;1.00;;;12.40;79.90;;;;;;7332787;19;21098;-73
2022/04/07 00:12:57;;;;;;;1.40;1.00;;;12.40;80.60;;;;;;7346759;19;20407;-71
2022/04/07 00:15:27;;;;;;;1.57;1.10;;;12.30;80.00;;;;;;7345289;19;21039;-71
2022/04/07 00:17:57;;;;;;;1.87;1.40;;;12.20;80.50;;;;;;7339572;19;20419;-72
2022/04/07 00:20:29;;;;;;;1.63;1.40;;;12.20;80.50;;;;;;7356734;19;20847;-73
2022/04/07 00:23:06;;;;;;;2.43;1.20;;;12.10;80.20;;;;;;7355482;19;21232;-73
2022/04/07 00:25:38;;;;;;;0.90;0.80;;;12.10;79.70;;;;;;7335215;19;20483;-74
2022/04/07 00:28:13;;;;;;;1.00;1.00;;;12.10;79.90;;;;;;7338973;19;20448;-73
2022/04/07 00:30:45;;;;;;;1.20;0.87;;;12.00;80.00;;;;;;7349507;19;20440;-74
2022/04/07 00:33:17;;;;;;;0.83;0.80;;;12.00;79.50;;;;;;7350040;19;20513;-73
2022/04/07 00:35:49;;;;;;;1.00;0.83;;;12.00;79.40;;;;;;7342712;19;20387;-73
2022/04/07 00:38:21;;;;;;;1.23;0.90;;;12.00;79.30;;;;;;7335906;19;20440;-73
2022/04/07 00:40:53;;;;;;;0.83;0.83;;;12.10;80.00;;;;;;7344587;19;20992;-73
2022/04/07 00:43:32;;;;;;;0.80;0.80;;;12.20;79.00;;;;;;7361768;19;20420;-71
2022/04/07 00:46:05;;;;;;;0.93;0.80;;;12.30;78.30;;;;;;7359498;19;20440;-72
2022/04/07 00:48:37;;;;;;;1.10;1.00;;;12.20;79.60;;;;;;7357750;19;20407;-72
2022/04/07 00:51:09;;;;;;;1.13;1.00;;;12.30;78.60;;;;;;7362442;19;20392;-73
2022/04/07 00:53:44;;;;;;;1.23;0.80;;;12.30;78.00;;;;;;7357590;19;20416;-72
2022/04/07 00:56:14;;;;;;;2.30;0.80;;;12.30;78.40;;;;;;7359924;19;20417;-72
2022/04/07 00:58:47;;;;;;;0.50;0.50;;;12.30;78.10;;;;;;7362244;19;21551;-72
2022/04/07 01:01:20;;;;;;;0.60;0.60;;;12.30;78.10;;;;;;7358266;19;20433;-72
2022/04/07 01:03:55;;;;;;;1.10;0.80;;;12.40;77.90;;;;;;7366731;19;20398;-72
2022/04/07 01:06:24;;;;;;;1.63;0.70;;;12.40;77.90;;;;;;7361777;19;21336;-72
2022/04/07 01:08:59;;;;;;;0.70;0.70;;;12.40;78.40;;;;;;7355812;19;20420;-72
2022/04/07 01:11:32;;;;;;;0.90;0.60;;;12.40;78.60;;;;;;7344004;19;20522;-72
2022/04/07 01:14:04;;;;;;;0.70;0.70;;;12.50;78.20;;;;;;7347748;19;20403;-72
2022/04/07 01:16:34;;;;;;;0.90;0.80;;;12.50;77.80;;;;;;7345430;19;20411;-72
2022/04/07 01:19:06;;;;;;;0.60;0.60;;;12.50;77.90;;;;;;7340918;19;20479;-72
2022/04/07 01:21:37;;;;;;;0.90;0.67;;;12.30;78.80;;;;;;7331752;19;20407;-71
2022/04/07 01:24:13;;;;;;;1.87;0.90;;;12.30;78.80;;;;;;7333314;19;20451;-72
2022/04/07 01:26:50;;;;;;;2.50;0.87;;;12.30;78.60;;;;;;7334170;19;20397;-71
2022/04/07 01:29:25;;;;;;;0.67;0.60;;;12.30;79.00;;;;;;7331259;19;20431;-72
2022/04/07 01:31:57;;;;;;;1.90;1.00;;;12.30;78.80;;;;;;7333830;19;20450;-72
2022/04/07 01:34:29;;;;;;;1.07;0.80;;;12.30;78.60;;;;;;7343713;19;20415;-72
2022/04/07 01:37:01;;;;;;;1.40;0.97;;;12.30;78.30;;;;;;7351011;19;20404;-73
2022/04/07 01:39:31;;;;;;;2.93;0.90;;;12.10;78.50;;;;;;7345234;19;21201;-72
2022/04/07 01:42:06;;;;;;;1.10;0.90;;;12.10;78.20;;;;;;7332563;19;20506;-72
2022/04/07 01:44:45;;;;;;;0.97;0.90;;;12.10;78.30;;;;;;7328380;19;20412;-73
2022/04/07 01:47:20;;;;;;;1.00;0.70;;;12.20;78.20;;;;;;7332433;19;20453;-72
2022/04/07 01:49:57;;;;;;;0.83;0.80;;;12.00;78.20;;;;;;7347545;19;20441;-73
2022/04/07 01:52:29;;;;;;;1.00;0.90;;;11.90;78.40;;;;;;7336498;19;20427;-73
2022/04/07 01:55:01;;;;;;;0.87;0.80;;;11.90;78.50;;;;;;7336424;19;20484;-72
2022/04/07 01:57:34;;;;;;;0.90;0.70;;;11.90;78.40;;;;;;7335440;19;20796;-72
2022/04/07 02:00:05;;;;;;;1.00;0.90;;;11.90;77.70;;;;;;7352047;19;20435;-72
2022/04/07 02:02:41;;;;;;;1.00;0.90;;;11.90;78.10;;;;;;7347254;19;21642;-72
2022/04/07 02:05:12;;;;;;;1.07;0.97;;;11.80;78.50;;;;;;7358299;19;20408;-73
2022/04/07 02:07:46;;;;;;;1.53;0.97;;;11.80;78.80;;;;;;7335836;19;22425;-72
2022/04/07 02:10:18;;;;;;;1.67;0.97;;;11.80;78.90;;;;;;7325282;19;20949;-72
2022/04/07 02:12:55;;;;;;;1.27;0.93;;;11.70;79.10;;;;;;7333378;19;20755;-72
2022/04/07 02:15:27;;;;;;;1.07;0.97;;;11.80;79.30;;;;;;7339185;19;20439;-73
2022/04/07 02:18:02;;;;;;;0.70;0.70;;;11.70;79.40;;;;;;7328806;19;20415;-72
2022/04/07 02:20:33;;;;;;;0.80;0.80;;;11.70;79.40;;;;;;7331271;19;20408;-72
2022/04/07 02:23:03;;;;;;;0.70;0.70;;;11.70;79.40;;;;;;7338719;19;20412;-72
2022/04/07 02:25:38;;;;;;;1.50;0.80;;;11.70;79.40;;;;;;7338001;19;20409;-73
2022/04/07 02:28:18;;;;;;;1.27;0.80;;;11.80;79.10;;;;;;7341305;19;20457;-72
2022/04/07 02:30:48;;;;;;;1.17;1.07;;;11.70;78.50;;;;;;7331093;19;20517;-72
2022/04/07 02:33:22;;;;;;;1.10;0.70;;;11.70;79.60;;;;;;7326712;19;22883;-73
2022/04/07 02:35:55;;;;;;;1.17;1.07;;;11.50;80.10;;;;;;7340721;19;20445;-72
2022/04/07 02:38:27;;;;;;;1.57;0.80;;;11.60;80.20;;;;;;7340709;19;20412;-72
2022/04/07 02:40:59;;;;;;;0.90;0.80;;;11.70;80.00;;;;;;7353989;19;20416;-72
2022/04/07 02:43:34;;;;;;;0.80;0.80;;;11.60;79.80;;;;;;7366092;19;20415;-72
2022/04/07 02:46:06;;;;;;;2.17;1.07;;;11.40;78.90;;;;;;7356910;19;21072;-72
2022/04/07 02:48:38;;;;;;;1.37;1.00;;;11.40;79.70;;;;;;7378919;19;20951;-72
2022/04/07 02:51:10;;;;;;;1.20;1.10;;;11.50;79.30;;;;;;7361269;19;20431;-73
2022/04/07 02:53:40;;;;;;;0.80;0.80;;;11.60;78.80;;;;;;7345570;19;20429;-71
2022/04/07 02:56:12;;;;;;;1.30;1.20;;;11.70;78.20;;;;;;7333481;19;20484;-74
2022/04/07 02:58:46;;;;;;;0.87;0.87;;;11.50;78.00;;;;;;7341802;19;20429;-71
2022/04/07 03:01:17;;;;;;;0.70;0.60;;;11.60;78.20;;;;;;7333541;19;20410;-73
2022/04/07 03:03:48;;;;;;;1.50;0.80;;;11.50;77.50;;;;;;7336818;19;20408;-76
2022/04/07 03:06:18;;;;;;;0.60;0.60;;;11.50;75.60;;;;;;7342285;19;20475;-78
2022/04/07 03:08:47;;;;;;;0.97;0.70;;;11.50;74.80;;;;;;7337006;19;20455;-77
2022/04/07 03:11:20;;;;;;;1.00;0.70;;;11.40;74.10;;;;;;7343275;19;22342;-73
2022/04/07 03:13:57;;;;;;;0.70;0.70;;;11.50;73.90;;;;;;7343644;19;21038;-72
2022/04/07 03:16:26;;;;;;;0.70;0.50;;;11.60;73.80;;;;;;7333967;19;22163;-73
2022/04/07 03:18:59;;;;;;;0.80;0.80;;;11.60;72.70;;;;;;7333978;19;20408;-73
2022/04/07 03:21:28;;;;;;;0.73;0.73;;;11.60;71.60;;;;;;7346101;19;20408;-73
2022/04/07 03:23:58;;;;;;;0.80;0.73;;;11.60;71.90;;;;;;7359622;19;20415;-73
2022/04/07 03:26:30;;;;;;;1.20;0.60;;;11.60;71.30;;;;;;7353376;19;20528;-73
2022/04/07 03:29:02;;;;;;;0.70;0.70;;;11.60;71.80;;;;;;7348255;19;20380;-73
2022/04/07 03:31:36;;;;;;;0.90;0.63;;;11.70;71.10;;;;;;7334230;19;24627;-72
2022/04/07 03:34:10;;;;;;;0.50;0.50;;;11.60;70.80;;;;;;7335694;19;20436;-73
2022/04/07 03:36:40;;;;;;;0.87;0.50;;;11.60;70.80;;;;;;7340998;19;20408;-73
2022/04/07 03:39:27;;;;;;;1.23;0.63;;;11.60;71.20;;;;;;7333514;19;20436;-72
2022/04/07 03:41:59;;;;;;;4.10;0.70;;;11.60;70.70;;;;;;7334038;19;20420;-72
2022/04/07 03:44:36;;;;;;;1.00;0.70;;;11.60;70.90;;;;;;7348194;19;20394;-72
2022/04/07 03:47:06;;;;;;;0.70;0.70;;;11.70;71.70;;;;;;7338800;19;21441;-71
2022/04/07 03:49:36;;;;;;;0.70;0.70;;;11.70;71.70;;;;;;7343346;19;20413;-72
2022/04/07 03:52:10;;;;;;;1.13;1.03;;;11.60;71.90;;;;;;7336411;19;20947;-73
2022/04/07 03:54:45;;;;;;;0.70;0.60;;;11.70;71.80;;;;;;7337659;19;20885;-73
2022/04/07 03:57:17;;;;;;;0.90;0.90;;;11.60;71.00;;;;;;7350460;19;20415;-73
2022/04/07 03:59:49;;;;;;;0.50;0.50;;;11.40;71.80;;;;;;7339997;19;20998;-72
2022/04/07 04:02:18;;;;;;;0.90;0.60;;;11.30;72.40;;;;;;7344284;19;20955;-73
2022/04/07 04:04:50;;;;;;;0.70;0.70;;;11.20;72.50;;;;;;7334832;19;22940;-73
2022/04/07 04:07:19;;;;;;;0.93;0.70;;;11.20;72.80;;;;;;7333587;19;20424;-73
2022/04/07 04:09:49;;;;;;;1.17;0.63;;;11.30;72.70;;;;;;7332085;19;20412;-73
2022/04/07 04:12:20;;;;;;;0.67;0.67;;;11.20;72.50;;;;;;7334625;19;20408;-72
2022/04/07 04:14:55;;;;;;;0.80;0.67;;;11.10;72.70;;;;;;7331111;19;20389;-72
2022/04/07 04:17:27;;;;;;;0.93;0.93;;;11.20;73.10;;;;;;7338666;19;22363;-73
2022/04/07 04:19:57;;;;;;;0.50;0.50;;;11.20;72.80;;;;;;7341376;19;20450;-73
2022/04/07 04:22:29;;;;;;;0.77;0.60;;;11.10;72.80;;;;;;7345188;19;20374;-73
2022/04/07 04:25:00;;;;;;;0.60;0.60;;;11.10;72.50;;;;;;7347343;19;20437;-73
2022/04/07 04:27:32;;;;;;;1.13;0.60;;;11.10;72.60;;;;;;7347224;19;20437;-73
2022/04/07 04:30:05;;;;;;;0.50;0.50;;;11.20;72.60;;;;;;7345870;19;20525;-73
2022/04/07 04:32:34;;;;;;;1.23;0.83;;;11.10;71.90;;;;;;7339301;19;20412;-73
2022/04/07 04:35:08;;;;;;;2.00;1.20;;;11.10;72.10;;;;;;7337424;19;20591;-73
2022/04/07 04:37:40;;;;;;;1.73;0.80;;;11.10;72.60;;;;;;7334507;19;20425;-72
2022/04/07 04:40:14;;;;;;;2.63;1.30;;;11.20;72.00;;;;;;7337821;19;20442;-72
2022/04/07 04:42:43;;;;;;;0.57;0.50;;;11.20;72.30;;;;;;7338806;19;20429;-73
2022/04/07 04:45:18;;;;;;;0.80;0.70;;;11.20;72.20;;;;;;7324601;19;20412;-73
2022/04/07 04:47:53;;;;;;;1.27;0.83;;;11.20;71.20;;;;;;7341713;19;20431;-73
2022/04/07 04:50:26;;;;;;;1.70;0.87;;;11.20;71.70;;;;;;7329890;19;20408;-72
2022/04/07 04:53:13;;;;;;;1.60;0.83;;;11.10;71.00;;;;;;7346412;19;25265;-72
2022/04/07 04:55:45;;;;;;;0.70;0.60;;;11.20;71.10;;;;;;7335345;19;20424;-72
2022/04/07 04:58:18;;;;;;;2.50;1.47;;;11.20;70.90;;;;;;7332974;19;21200;-73
2022/04/07 05:00:52;;;;;;;1.23;0.70;;;11.30;70.60;;;;;;7324162;19;20437;-73
2022/04/07 05:03:24;;;;;;;1.03;0.90;;;11.40;71.10;;;;;;7340187;19;20947;-73
2022/04/07 05:05:54;;;;;;;1.10;0.87;;;11.40;69.70;;;;;;7325753;19;20429;-73
2022/04/07 05:08:23;;;;;;;0.80;0.70;;;11.50;69.80;;;;;;7348543;19;20412;-73
2022/04/07 05:10:53;;;;;;;1.43;0.70;;;11.50;69.60;;;;;;7328936;19;20432;-73
2022/04/07 05:13:25;;;;;;;0.90;0.80;;;11.50;69.20;;;;;;7336142;19;20412;-73
2022/04/07 05:15:57;;;;;;;1.90;0.77;;;11.60;70.10;;;;;;7339200;19;20516;-73
2022/04/07 05:18:26;;;;;;;1.00;0.80;;;11.50;70.10;;;;;;7331937;19;20459;-73
2022/04/07 05:20:56;;;;;;;0.63;0.60;;;11.50;71.00;;;;;;7343905;19;20444;-73
2022/04/07 05:23:25;;;;;;;0.80;0.80;;;11.50;71.10;;;;;;7360236;19;21068;-73
2022/04/07 05:25:55;;;;;;;2.30;2.10;;;11.50;71.00;;;;;;7365983;19;20411;-73
2022/04/07 05:28:26;;;;;;;1.30;0.87;;;11.50;71.60;;;;;;7362287;19;20408;-73
2022/04/07 05:31:01;;;;;;;0.50;0.50;;;11.50;71.40;;;;;;7353987;19;20455;-73
2022/04/07 05:33:30;;;;;;;1.10;0.60;;;11.40;71.50;;;;;;7358154;19;20423;-73
2022/04/07 05:36:02;;;;;;;1.03;0.60;;;11.50;71.00;;;;;;7337048;19;20787;-73
2022/04/07 05:38:36;;;;;;;1.37;0.70;;;11.50;70.50;;;;;;7337821;19;20500;-73
2022/04/07 05:41:08;;;;;;;1.00;0.60;;;11.50;70.10;;;;;;7341955;19;21116;-72
2022/04/07 05:43:38;;;;;;;3.20;0.47;;;11.60;71.00;;;;;;7362724;19;20960;-72
2022/04/07 05:46:12;;;;;;;0.80;0.60;;;11.70;70.00;;;;;;7356435;19;20396;-72
2022/04/07 05:48:42;;;;;;;0.50;0.47;;;11.60;69.20;;;;;;7363136;19;20387;-72
2022/04/07 05:51:16;;;;;;;1.10;0.87;;;11.60;69.20;;;;;;7359493;19;20419;-72
2022/04/07 05:53:51;;;;;;;1.50;0.60;;;11.50;69.70;;;;;;7360784;19;20951;-72
2022/04/07 05:56:23;;;;;;;0.90;0.70;;;11.40;69.50;;;;;;7330588;19;20397;-72
2022/04/07 05:58:55;;;;;;;1.00;0.60;;;11.40;69.70;;;;;;7344616;19;20404;-73
2022/04/07 06:01:30;;;;;;;0.80;0.60;;;11.50;69.60;;;;;;7344695;19;20404;-72
2022/04/07 06:04:02;;;;;;;5.07;0.80;;;11.60;68.50;;;;;;7345810;19;20396;-73
2022/04/07 06:06:31;;;;;;;1.07;0.40;;;11.70;68.00;;;;;;7339746;19;20388;-72
2022/04/07 06:09:00;;;;;;;0.50;0.47;;;11.70;68.30;;;;;;7357816;19;21757;-74
2022/04/07 06:11:32;;;;;;;0.60;0.50;;;11.80;67.30;;;;;;7361285;19;20376;-73
2022/04/07 06:14:06;;;;;;;0.80;0.50;;;11.90;67.20;;;;;;7361506;19;20454;-73
2022/04/07 06:16:43;;;;;;;0.40;0.40;;;12.00;66.80;;;;;;7361451;19;20376;-73
2022/04/07 06:19:15;;;;;;;0.93;0.50;;;12.10;67.20;;;;;;7362760;19;21391;-71
2022/04/07 06:21:47;;;;;;;0.50;0.47;;;12.10;65.70;;;;;;7361901;19;20965;-73
2022/04/07 06:24:19;;;;;;;1.07;0.40;;;12.20;65.00;;;;;;7362560;19;20939;-73
2022/04/07 06:26:51;;;;;;;0.40;0.33;;;12.20;64.40;;;;;;7359104;19;20413;-73
2022/04/07 06:29:23;;;;;;;0.73;0.40;;;12.10;64.50;;;;;;7360128;19;20519;-73
2022/04/07 06:31:56;;;;;;;0.57;0.37;;;12.30;64.00;;;;;;7363601;19;20511;-74
2022/04/07 06:34:28;;;;;;;0.43;0.40;;;12.30;63.10;;;;;;7362202;19;20844;-71
2022/04/07 06:37:00;;;;;;;0.60;0.53;;;12.30;63.40;;;;;;7359564;19;20928;-74
2022/04/07 06:39:32;;;;;;;0.80;0.60;;;12.30;63.10;;;;;;7362944;19;20396;-74
2022/04/07 06:42:01;;;;;;;0.40;0.40;;;12.20;66.90;;;;;;7360032;19;20408;-73
2022/04/07 06:44:34;;;;;;;0.97;0.40;;;12.30;66.00;;;;;;7360618;19;20391;-72
2022/04/07 06:47:08;;;;;;;0.70;0.40;;;12.40;65.80;;;;;;7361981;19;20428;-72
2022/04/07 06:49:38;;;;;;;2.00;0.40;;;12.50;63.90;;;;;;7359753;19;20415;-77
2022/04/07 06:52:10;;;;;;;0.30;0.30;;;12.50;63.40;;;;;;7362076;19;20416;-76
2022/04/07 06:54:39;;;;;;;0.50;0.40;;;12.50;62.40;;;;;;7359338;19;20939;-76
2022/04/07 06:57:09;;;;;;;0.50;0.30;;;12.40;63.30;;;;;;7364672;19;20392;-77
2022/04/07 06:59:38;;;;;;;0.90;0.50;;;12.40;62.50;;;;;;7360119;19;20412;-75
2022/04/07 07:02:15;;;;;;;0.83;0.40;;;12.50;62.60;;;;;;7363609;19;20432;-76
2022/04/07 07:04:44;;;;;;;0.40;0.40;;;12.50;62.30;;;;;;7364280;19;20412;-76
2022/04/07 07:07:14;;;;;;;1.60;0.60;;;12.50;62.50;;;;;;7357332;19;21007;-77
2022/04/07 07:09:46;;;;;;;0.50;0.30;;;12.60;62.50;;;;;;7364303;19;21322;-77
2022/04/07 07:12:16;;;;;;;1.33;0.30;;;12.50;62.00;;;;;;7359550;19;21033;-77
2022/04/07 07:14:49;;;;;;;0.30;0.30;;;12.50;62.50;;;;;;7367570;19;20416;-77
2022/04/07 07:17:21;;;;;;;0.40;0.30;;;12.50;62.20;;;;;;7365059;19;20507;-77
2022/04/07 07:19:51;;;;;;;0.80;0.80;;;12.60;62.50;;;;;;7361668;19;20400;-73
2022/04/07 07:22:20;;;;;;;1.70;0.50;;;12.80;61.70;;;;;;7357484;19;20400;-74
2022/04/07 07:24:52;;;;;;;0.50;0.50;;;13.00;61.00;;;;;;7358259;19;21180;-74
2022/04/07 07:27:22;;;;;;;0.60;0.60;;;12.90;60.20;;;;;;7361371;19;20416;-73
2022/04/07 07:29:52;;;;;;;3.20;0.60;;;12.90;60.00;;;;;;7366247;19;20466;-71
2022/04/07 07:32:28;;;;;;;0.43;0.40;;;12.90;60.60;;;;;;7366215;19;20386;-72
2022/04/07 07:35:00;;;;;;;0.73;0.30;;;13.00;59.80;;;;;;7369004;19;20443;-72
2022/04/07 07:37:32;;;;;;;0.70;0.40;;;13.20;59.70;;;;;;7349318;19;20949;-72
2022/04/07 07:40:07;;;;;;;0.30;0.30;;;13.40;59.00;;;;;;7338627;19;21075;-74
2022/04/07 07:42:38;;;;;;;1.47;0.40;;;13.20;58.40;;;;;;7343509;19;20436;-73
2022/04/07 07:45:09;;;;;;;1.57;0.50;;;13.40;59.10;;;;;;7344715;19;20405;-78
2022/04/07 07:47:41;;;;;;;1.83;0.57;;;13.50;58.60;;;;;;7354191;19;20408;-78
2022/04/07 07:50:13;;;;;;;2.00;0.40;;;13.70;58.10;;;;;;7318344;19;20420;-78
2022/04/07 07:52:43;;;;;;;3.20;0.40;;;14.00;57.60;;;;;;7305127;19;20392;-78
2022/04/07 07:55:17;;;;;;;1.37;0.60;;;14.10;57.10;;;;;;7320720;19;20426;-78
2022/04/07 07:57:47;;;;;;;1.27;0.37;;;14.20;57.50;;;;;;7315400;19;20427;-77
2022/04/07 08:00:23;;;;;;;0.70;0.50;;;14.40;56.40;;;;;;7344460;19;20818;-79
2022/04/07 08:02:55;;;;;;;1.73;0.50;;;14.50;56.90;;;;;;7350123;19;22632;-77
2022/04/07 08:05:25;;;;;;;1.10;0.70;;;14.20;56.70;;;;;;7335057;19;20416;-78
2022/04/07 08:07:55;;;;;;;1.03;0.40;;;14.10;57.70;;;;;;7328440;19;21221;-76
2022/04/07 08:10:26;;;;;;;0.37;0.37;;;14.10;56.80;;;;;;7325179;19;20409;-78
2022/04/07 08:12:56;;;;;;;1.00;0.50;;;13.80;57.40;;;;;;7329731;19;20443;-77
2022/04/07 08:15:32;;;;;;;0.70;0.40;;;13.90;57.60;;;;;;7321144;19;20428;-78
2022/04/07 08:18:05;;;;;;;0.60;0.50;;;14.10;57.30;;;;;;7356505;19;20388;-81
2022/04/07 08:20:34;;;;;;;3.80;0.43;;;14.30;56.70;;;;;;7377374;19;20417;-82
2022/04/07 08:23:04;;;;;;;1.10;0.50;;;14.40;56.90;;;;;;7371887;19;20413;-78
2022/04/07 08:25:33;;;;;;;0.60;0.30;;;14.20;56.50;;;;;;7391797;19;20394;-80
2022/04/07 08:28:02;;;;;;;2.00;0.73;;;14.20;56.40;;;;;;7408781;19;20376;-79
2022/04/07 08:30:34;;;;;;;0.30;0.30;;;14.20;56.20;;;;;;7397649;19;20432;-78
2022/04/07 08:33:08;;;;;;;0.80;0.40;;;14.40;56.00;;;;;;7370760;19;20412;-83
2022/04/07 08:35:40;;;;;;;3.63;1.13;;;14.60;55.90;;;;;;7365038;19;20863;-77
2022/04/07 08:38:15;;;;;;;0.87;0.50;;;14.50;55.40;;;;;;7364051;19;20433;-82
2022/04/07 08:40:45;;;;;;;0.60;0.40;;;14.50;55.70;;;;;;7363487;19;21519;-80
2022/04/07 08:43:15;;;;;;;1.63;0.80;;;14.50;56.00;;;;;;7350559;19;20421;-79
2022/04/07 08:45:47;;;;;;;26.33;1.80;;;14.40;56.00;;;;;;7354052;19;20416;-78
2022/04/07 08:48:24;;;;;;;2.73;1.23;;;14.50;55.70;;;;;;7345905;19;20397;-77
2022/04/07 08:50:54;;;;;;;0.67;0.33;;;14.50;55.80;;;;;;7331092;19;20405;-79
2022/04/07 08:53:24;;;;;;;0.70;0.50;;;14.60;55.60;;;;;;7331985;19;23452;-80
2022/04/07 08:55:54;;;;;;;1.00;0.47;;;14.80;55.30;;;;;;7317994;19;20502;-75
2022/04/07 08:58:23;;;;;;;0.40;0.30;;;14.90;54.90;;;;;;7312772;19;20503;-77
2022/04/07 09:00:55;;;;;;;0.70;0.30;;;14.90;54.80;;;;;;7296545;19;20400;-78
2022/04/07 09:03:27;;;;;;;0.40;0.30;;;14.80;54.60;;;;;;7322005;19;20429;-82
2022/04/07 09:05:58;;;;;;;1.87;0.70;;;14.50;55.00;;;;;;7316090;19;24808;-78
2022/04/07 09:08:35;;;;;;;0.30;0.30;;;14.40;55.00;;;;;;7311999;19;21407;-78
2022/04/07 09:11:09;;;;;;;1.37;0.40;;;14.40;55.20;;;;;;7315139;19;20444;-78
2022/04/07 09:13:39;;;;;;;5.40;0.50;;;14.40;55.00;;;;;;7309710;19;21350;-81
2022/04/07 09:16:12;;;;;;;0.40;0.40;;;14.50;54.90;;;;;;7305636;19;20428;-77
2022/04/07 09:18:47;;;;;;;0.50;0.40;;;14.50;54.80;;;;;;7308530;19;20713;-79
2022/04/07 09:21:25;;;;;;;0.50;0.30;;;14.50;54.70;;;;;;7303848;19;20416;-79
2022/04/07 09:23:56;;;;;;;0.40;0.30;;;14.40;54.70;;;;;;7311382;19;22597;-78
2022/04/07 09:26:28;;;;;;;0.53;0.37;;;14.40;54.60;;;;;;7305479;19;20433;-78
2022/04/07 09:29:10;;;;;;;0.30;0.20;;;14.40;55.00;;;;;;7298313;19;21012;-78
2022/04/07 09:31:41;;;;;;;0.83;0.30;;;14.40;57.00;;;;;;7314981;19;20523;-82
2022/04/07 09:34:15;;;;;;;1.00;0.50;;;14.50;56.50;;;;;;7316084;19;20440;-82
2022/04/07 09:36:44;;;;;;;0.60;0.47;;;14.50;57.50;;;;;;7307467;19;21467;-81
2022/04/07 09:39:26;;;;;;;0.83;0.40;;;14.30;56.80;;;;;;7300836;19;21494;-78
2022/04/07 09:42:25;;;;;;;2.83;0.40;;;14.30;57.80;;;;;;7341701;19;20961;-81
2022/04/07 09:44:57;;;;;;;0.60;0.30;;;14.00;64.20;;;;;;7357941;19;20400;-81
2022/04/07 09:47:35;;;;;;;1.80;0.43;;;13.80;61.40;;;;;;7350643;19;20416;-80
2022/04/07 09:50:24;;;;;;;0.37;0.33;;;13.70;63.20;;;;;;7349709;19;20441;-79
2022/04/07 09:53:09;;;;;;;0.60;0.20;;;13.70;61.50;;;;;;7348295;19;21079;-83
2022/04/07 09:55:40;;;;;;;0.30;0.30;;;14.00;61.30;;;;;;7349651;19;20518;-81
2022/04/07 09:58:12;;;;;;;0.40;0.40;;;14.30;59.40;;;;;;7351407;19;20420;-78
2022/04/07 10:00:47;;;;;;;0.40;0.37;;;15.20;58.20;;;;;;7348622;19;20424;-81
2022/04/07 10:03:17;;;;;;;0.30;0.30;;;16.70;54.00;;;;;;7346438;19;20416;-82
2022/04/07 10:05:50;;;;;;;0.90;0.43;;;16.60;52.10;;;;;;7353908;19;22236;-81
2022/04/07 10:08:23;;;;;;;0.80;0.40;;;16.20;53.00;;;;;;7351433;19;20416;-82
2022/04/07 10:10:53;;;;;;;2.07;0.97;;;16.40;53.40;;;;;;7350821;19;20404;-83
2022/04/07 10:13:23;;;;;;;0.50;0.40;;;16.20;53.00;;;;;;7348174;19;21088;-82
2022/04/07 10:15:55;;;;;;;0.40;0.40;;;16.00;52.50;;;;;;7352882;19;21446;-81
2022/04/07 10:18:31;;;;;;;0.30;0.27;;;15.90;53.10;;;;;;7350355;19;21070;-82
2022/04/07 10:21:05;;;;;;;1.60;0.40;;;16.00;52.60;;;;;;7356964;19;20412;-82
2022/04/07 10:23:49;;;;;;;0.40;0.20;;;16.30;51.80;;;;;;7344494;19;20396;-82
2022/04/07 10:26:26;;;;;;;2.10;0.53;;;16.30;51.40;;;;;;7345821;19;20505;-82
2022/04/07 10:28:58;;;;;;;0.40;0.40;;;16.30;52.00;;;;;;7344605;19;20409;-82
2022/04/07 10:31:30;;;;;;;0.77;0.30;;;16.30;50.50;;;;;;7354004;19;20424;-81
2022/04/07 10:34:08;;;;;;;4.20;3.00;;;16.50;50.30;;;;;;7352788;19;20399;-82
2022/04/07 10:36:43;;;;;;;11.00;0.63;;;16.40;51.10;;;;;;7343008;19;20409;-83
2022/04/07 10:39:15;;;;;;;1.63;0.40;;;16.30;50.70;;;;;;7351023;19;20400;-82
2022/04/07 10:41:51;;;;;;;0.30;0.20;;;16.30;51.60;;;;;;7351464;19;20404;-85
2022/04/07 10:44:24;;;;;;;0.30;0.30;;;16.40;51.40;;;;;;7354408;19;20418;-80
2022/04/07 10:47:04;;;;;;;5.50;0.30;;;16.20;51.40;;;;;;7350515;19;20403;-81
2022/04/07 10:49:37;;;;;;;0.93;0.43;;;16.30;51.60;;;;;;7333535;19;20416;-84
2022/04/07 10:52:28;;;;;;;0.47;0.30;;;17.00;51.10;;;;;;7340796;19;20421;-82
2022/04/07 10:55:14;;;;;;;0.30;0.30;;;17.90;49.00;;;;;;7349787;19;20404;-83
2022/04/07 10:58:13;;;;;;;0.43;0.30;;;19.80;45.70;;;;;;7345807;19;20404;-82
2022/04/07 11:00:43;;;;;;;1.43;0.30;;;18.90;45.50;;;;;;7334103;19;20483;-85
2022/04/07 11:03:18;;;;;;;0.83;0.50;;;18.50;46.30;;;;;;7341241;19;20527;-85
2022/04/07 11:05:56;;;;;;;0.30;0.20;;;17.70;48.10;;;;;;7346781;19;20420;-85
2022/04/07 11:08:31;;;;;;;0.60;0.30;;;17.10;49.10;;;;;;7349722;19;20426;-86
2022/04/07 11:11:03;;;;;;;0.50;0.30;;;16.60;50.20;;;;;;7352990;19;21368;-87
2022/04/07 11:13:48;;;;;;;1.33;0.57;;;16.60;51.10;;;;;;7348250;19;20419;-84
2022/04/07 11:16:29;;;;;;;0.73;0.40;;;16.50;51.20;;;;;;7388834;19;20408;-84
2022/04/07 11:19:18;;;;;;;2.10;0.40;;;16.60;51.00;;;;;;7386070;19;21495;-88
2022/04/07 11:21:52;;;;;;;1.27;1.03;;;16.60;50.00;;;;;;7372919;19;20753;-84
2022/04/07 11:24:28;;;;;;;1.63;0.77;;;16.50;50.40;;;;;;7385746;19;20918;-83
2022/04/07 11:27:37;;;;;;;0.30;0.20;;;16.40;51.00;;;;;;7388254;19;21321;-86
2022/04/07 11:30:12;;;;;;;0.67;0.30;;;16.70;50.30;;;;;;7393418;19;20444;-81
2022/04/07 11:33:14;;;;;;;0.83;0.37;;;17.00;50.20;;;;;;7395731;19;20407;-83
2022/04/07 11:35:43;;;;;;;0.73;0.40;;;17.40;48.80;;;;;;7404369;19;20428;-85
2022/04/07 11:38:13;;;;;;;0.60;0.30;;;17.40;48.40;;;;;;7413671;19;20412;-81
2022/04/07 11:41:02;;;;;;;0.50;0.30;;;17.20;48.60;;;;;;7424715;19;20430;-84
2022/04/07 11:43:55;;;;;;;3.50;0.40;;;17.00;49.20;;;;;;7416978;19;20416;-86
2022/04/07 11:46:31;;;;;;;0.40;0.30;;;16.90;49.40;;;;;;7413737;19;20412;-82
2022/04/07 11:49:04;;;;;;;5.00;0.37;;;16.80;49.90;;;;;;7403547;19;20420;-86
2022/04/07 11:51:37;;;;;;;0.33;0.30;;;16.60;50.40;;;;;;7374012;19;20412;-84
2022/04/07 11:54:07;;;;;;;0.30;0.30;;;16.70;50.50;;;;;;7379580;19;20408;-89
2022/04/07 11:56:40;;;;;;;1.47;0.37;;;16.70;50.80;;;;;;7374218;19;20412;-85
2022/04/07 11:59:11;;;;;;;1.70;0.20;;;16.30;51.20;;;;;;7381647;19;20430;-85
2022/04/07 12:01:44;;;;;;;0.87;0.30;;;16.20;51.90;;;;;;7372445;19;20982;-86
2022/04/07 12:04:16;;;;;;;0.47;0.20;;;16.20;52.00;;;;;;7369191;19;22077;-83
2022/04/07 12:06:50;;;;;;;0.30;0.30;;;16.30;52.00;;;;;;7369558;19;20400;-86
2022/04/07 12:09:20;;;;;;;3.23;0.30;;;16.10;52.30;;;;;;7364891;19;20404;-87
2022/04/07 12:11:50;;;;;;;1.50;0.30;;;16.30;52.20;;;;;;7361967;19;20404;-84
2022/04/07 12:14:26;;;;;;;0.57;0.30;;;16.60;51.80;;;;;;7373514;19;20406;-85
2022/04/07 12:17:01;;;;;;;2.10;0.30;;;16.50;51.60;;;;;;7367013;19;20943;-88
2022/04/07 12:19:45;;;;;;;0.30;0.30;;;16.50;51.50;;;;;;7375516;19;20397;-90
2022/04/07 12:22:20;;;;;;;0.40;0.30;;;15.90;52.70;;;;;;7352509;19;20396;-80
2022/04/07 12:25:03;;;;;;;1.80;0.30;;;16.00;53.30;;;;;;7359239;19;20402;-90
2022/04/07 12:27:36;;;;;;;0.50;0.37;;;16.10;52.80;;;;;;7357801;19;20229;-83
2022/04/07 12:30:11;;;;;;;0.30;0.30;;;15.80;53.50;;;;;;7345948;19;20472;-82
2022/04/07 12:32:47;;;;;;;1.37;0.20;;;15.60;54.10;;;;;;7343368;19;20400;-80
2022/04/07 12:35:17;;;;;;;1.10;0.37;;;15.20;54.90;;;;;;7351791;19;20400;-81
2022/04/07 12:37:49;;;;;;;0.73;0.20;;;15.20;55.30;;;;;;7362300;19;21018;-83
2022/04/07 12:40:30;;;;;;;1.50;0.50;;;15.20;55.70;;;;;;7363362;19;20407;-83
2022/04/07 12:43:02;;;;;;;0.60;0.30;;;15.30;55.50;;;;;;7354031;19;20404;-79
2022/04/07 12:45:31;;;;;;;0.60;0.30;;;15.20;55.50;;;;;;7355062;19;20966;-78
2022/04/07 12:48:07;;;;;;;1.37;0.33;;;15.30;55.50;;;;;;7349022;19;20404;-84
2022/04/07 12:50:39;;;;;;;2.00;0.30;;;15.50;55.20;;;;;;7341756;19;20773;-82
2022/04/07 12:53:29;;;;;;;3.50;0.50;;;15.60;54.70;;;;;;7355248;19;20408;-84
2022/04/07 12:56:02;;;;;;;0.67;0.20;;;15.50;55.10;;;;;;7368709;19;21102;-87
2022/04/07 12:58:33;;;;;;;0.90;0.37;;;15.40;55.10;;;;;;7368084;19;20431;-79
2022/04/07 13:01:06;;;;;;;0.50;0.30;;;15.50;55.00;;;;;;7371619;19;20821;-80
2022/04/07 13:03:57;;;;;;;0.77;0.30;;;15.50;55.00;;;;;;7374165;19;20422;-85
2022/04/07 13:06:31;;;;;;;2.00;0.30;;;15.20;55.90;;;;;;7363556;19;20417;-81
2022/04/07 13:09:01;;;;;;;1.73;0.30;;;15.20;56.30;;;;;;7358427;19;20413;-84
2022/04/07 13:11:35;;;;;;;0.97;0.20;;;15.40;56.50;;;;;;7367548;19;20415;-80
2022/04/07 13:14:07;;;;;;;0.57;0.40;;;15.40;56.40;;;;;;7365960;19;20400;-78
2022/04/07 13:16:37;;;;;;;2.03;0.30;;;15.40;56.40;;;;;;7338570;19;20420;-82
2022/04/07 13:19:14;;;;;;;0.50;0.30;;;15.70;56.20;;;;;;7377594;19;20423;-83